Time;durP1;ratioP1;P1;durP2;ratioP2;P2;SDS_P1;SDS_P2;PMS_P1;PMS_P2;Temp;Humidity;BMP_temperature;BMP_pressure;BME280_temperature;BME280_humidity;BME280_pressure;Samples;Min_cycle;Max_cycle;Signal;HPM_P1;HPM_P2
2022/07/10 00:00:02;;;;;;;5.03;1.03;;;;;;;;;;5090968;28;20116;-66
2022/07/10 00:02:27;;;;;;;7.73;1.53;;;;;;;;;;5093765;28;20020;-66
2022/07/10 00:04:52;;;;;;;11.30;1.20;;;;;;;;;;5089715;28;20081;-67
2022/07/10 00:07:17;;;;;;;9.07;1.03;;;;;;;;;;5092387;28;20024;-67
2022/07/10 00:09:43;;;;;;;11.47;2.20;;;;;;;;;;5094230;28;20472;-67
2022/07/10 00:12:08;;;;;;;6.80;1.50;;;;;;;;;;5076985;28;20016;-66
2022/07/10 00:14:33;;;;;;;8.47;1.30;;;;;;;;;;5074609;28;20025;-67
2022/07/10 00:16:58;;;;;;;9.67;1.20;;;;;;;;;;5083542;28;20092;-66
2022/07/10 00:19:23;;;;;;;6.23;1.37;;;;;;;;;;5093838;28;20032;-67
2022/07/10 00:21:49;;;;;;;7.17;1.40;;;;;;;;;;5090761;28;20372;-67
2022/07/10 00:24:14;;;;;;;8.03;1.30;;;;;;;;;;5093699;28;20498;-67
2022/07/10 00:26:40;;;;;;;9.10;1.33;;;;;;;;;;5073647;28;20035;-67
2022/07/10 00:29:05;;;;;;;10.90;1.73;;;;;;;;;;5091889;28;20032;-66
2022/07/10 00:31:30;;;;;;;4.77;1.27;;;;;;;;;;5093366;28;20081;-67
2022/07/10 00:33:56;;;;;;;13.27;1.37;;;;;;;;;;5088762;28;20020;-67
2022/07/10 00:36:21;;;;;;;7.70;1.43;;;;;;;;;;5082950;28;20025;-67
2022/07/10 00:38:46;;;;;;;9.13;2.07;;;;;;;;;;5083961;28;20396;-66
2022/07/10 00:41:11;;;;;;;10.43;1.50;;;;;;;;;;5083652;28;20476;-67
2022/07/10 00:43:56;;;;;;;9.03;1.53;;;;;;;;;;5074715;28;20027;-67
2022/07/10 00:46:22;;;;;;;8.23;1.30;;;;;;;;;;5073077;28;20028;-67
2022/07/10 00:48:47;;;;;;;10.27;1.50;;;;;;;;;;5087494;28;20158;-67
2022/07/10 00:51:13;;;;;;;10.00;1.50;;;;;;;;;;5062656;28;20430;-66
2022/07/10 00:53:38;;;;;;;10.07;1.47;;;;;;;;;;5062179;28;20019;-66
2022/07/10 00:56:04;;;;;;;6.20;1.30;;;;;;;;;;5061526;28;21044;-67
2022/07/10 00:58:29;;;;;;;8.77;1.47;;;;;;;;;;5060576;28;20401;-67
2022/07/10 01:00:55;;;;;;;15.63;2.23;;;;;;;;;;5065115;28;20039;-67
2022/07/10 01:03:20;;;;;;;12.37;1.63;;;;;;;;;;5059937;28;20110;-67
2022/07/10 01:05:46;;;;;;;11.37;1.80;;;;;;;;;;5072313;28;20021;-67
2022/07/10 01:08:11;;;;;;;8.17;1.50;;;;;;;;;;5090924;28;20024;-67
2022/07/10 01:10:37;;;;;;;8.57;1.77;;;;;;;;;;5091018;28;20414;-67
2022/07/10 01:13:02;;;;;;;11.47;1.53;;;;;;;;;;5086563;28;20074;-67
2022/07/10 01:15:27;;;;;;;10.77;1.60;;;;;;;;;;5072768;28;20465;-67
2022/07/10 01:17:53;;;;;;;8.00;1.67;;;;;;;;;;5089898;28;20064;-67
2022/07/10 01:20:18;;;;;;;9.77;2.27;;;;;;;;;;5086582;28;20484;-67
2022/07/10 01:22:44;;;;;;;11.07;1.80;;;;;;;;;;5079532;28;20049;-67
2022/07/10 01:25:10;;;;;;;8.60;1.30;;;;;;;;;;5092763;28;20028;-66
2022/07/10 01:27:36;;;;;;;9.07;1.57;;;;;;;;;;5092264;28;20027;-67
2022/07/10 01:30:07;;;;;;;12.63;1.97;;;;;;;;;;5086650;28;20033;-67
2022/07/10 01:32:39;;;;;;;10.48;1.40;;;;;;;;;;5081672;28;20054;-67
2022/07/10 01:35:05;;;;;;;7.87;1.40;;;;;;;;;;5090684;28;20384;-67
2022/07/10 01:37:30;;;;;;;9.50;1.73;;;;;;;;;;5092001;28;20020;-67
2022/07/10 01:39:55;;;;;;;7.67;1.07;;;;;;;;;;5092545;28;20537;-67
2022/07/10 01:42:20;;;;;;;10.33;1.30;;;;;;;;;;5090731;28;20023;-67
2022/07/10 01:44:46;;;;;;;7.27;1.20;;;;;;;;;;5092315;28;20020;-67
2022/07/10 01:47:11;;;;;;;10.63;1.50;;;;;;;;;;5087174;28;20066;-67
2022/07/10 01:49:37;;;;;;;7.27;1.20;;;;;;;;;;5079459;28;20028;-67
2022/07/10 01:52:03;;;;;;;7.40;1.40;;;;;;;;;;5073060;28;20400;-67
2022/07/10 01:54:28;;;;;;;8.70;1.30;;;;;;;;;;5060524;28;20032;-66
2022/07/10 01:56:53;;;;;;;7.97;1.30;;;;;;;;;;5060614;28;20023;-66
2022/07/10 01:59:18;;;;;;;6.53;1.23;;;;;;;;;;5058981;28;20024;-67
2022/07/10 02:01:44;;;;;;;7.67;1.20;;;;;;;;;;5065762;28;20028;-67
2022/07/10 02:06:52;;;;;;;7.27;1.10;;;;;;;;;;5068972;28;20100;-67
2022/07/10 02:09:19;;;;;;;8.10;1.37;;;;;;;;;;5061539;28;20028;-67
2022/07/10 02:11:44;;;;;;;7.03;1.20;;;;;;;;;;5063242;28;20036;-67
2022/07/10 02:14:09;;;;;;;6.57;1.33;;;;;;;;;;5067967;28;20415;-67
2022/07/10 02:16:35;;;;;;;4.47;1.00;;;;;;;;;;5060943;28;20500;-66
2022/07/10 02:19:01;;;;;;;9.50;1.40;;;;;;;;;;5061208;28;20024;-66
2022/07/10 02:21:26;;;;;;;13.83;1.30;;;;;;;;;;5060284;28;20094;-66
2022/07/10 02:23:51;;;;;;;7.93;1.20;;;;;;;;;;5070932;28;20060;-67
2022/07/10 02:26:16;;;;;;;10.90;1.10;;;;;;;;;;5071051;28;20024;-67
2022/07/10 02:28:42;;;;;;;7.80;1.10;;;;;;;;;;5091425;28;20043;-67
2022/07/10 02:31:07;;;;;;;9.93;1.73;;;;;;;;;;5090384;28;20024;-67
2022/07/10 02:33:32;;;;;;;6.13;1.27;;;;;;;;;;5091134;28;20062;-67
2022/07/10 02:35:57;;;;;;;7.03;1.63;;;;;;;;;;5087248;28;20027;-67
2022/07/10 02:38:22;;;;;;;7.27;1.07;;;;;;;;;;5072050;28;20090;-67
2022/07/10 02:40:48;;;;;;;7.77;1.30;;;;;;;;;;5080399;28;20032;-67
2022/07/10 02:43:13;;;;;;;8.90;1.27;;;;;;;;;;5091520;28;20409;-66
2022/07/10 02:45:38;;;;;;;7.67;1.70;;;;;;;;;;5088461;28;20543;-67
2022/07/10 02:48:04;;;;;;;11.57;1.57;;;;;;;;;;5086080;28;20040;-67
2022/07/10 02:50:29;;;;;;;11.90;4.47;;;;;;;;;;5089618;28;20032;-67
2022/07/10 02:52:54;;;;;;;14.07;5.43;;;;;;;;;;5086424;28;20032;-67
2022/07/10 02:55:19;;;;;;;12.97;5.20;;;;;;;;;;5081346;28;20028;-67
2022/07/10 02:57:45;;;;;;;10.67;3.13;;;;;;;;;;5085665;28;20464;-67
2022/07/10 03:00:11;;;;;;;10.53;2.33;;;;;;;;;;5081744;28;20026;-67
2022/07/10 03:02:36;;;;;;;11.60;2.60;;;;;;;;;;5081288;28;20024;-67
2022/07/10 03:05:01;;;;;;;8.70;2.10;;;;;;;;;;5081456;28;20595;-67
2022/07/10 03:07:27;;;;;;;7.30;1.40;;;;;;;;;;5080392;28;20538;-66
2022/07/10 03:09:52;;;;;;;7.33;1.57;;;;;;;;;;5084120;28;20028;-66
2022/07/10 03:12:18;;;;;;;7.43;1.40;;;;;;;;;;5074968;28;20016;-67
2022/07/10 03:14:43;;;;;;;8.60;1.33;;;;;;;;;;5088379;28;20031;-67
2022/07/10 03:17:09;;;;;;;4.77;1.20;;;;;;;;;;5082159;28;20020;-67
2022/07/10 03:19:34;;;;;;;7.70;1.50;;;;;;;;;;5073409;28;20035;-66
2022/07/10 03:21:59;;;;;;;8.63;1.47;;;;;;;;;;5073892;28;20023;-67
2022/07/10 03:24:24;;;;;;;7.83;1.00;;;;;;;;;;5072330;28;20120;-67
2022/07/10 03:26:50;;;;;;;6.00;1.23;;;;;;;;;;5073661;28;20064;-66
2022/07/10 03:29:15;;;;;;;8.53;1.20;;;;;;;;;;5079070;28;20031;-67
2022/07/10 03:31:40;;;;;;;9.50;1.33;;;;;;;;;;5073399;28;20611;-66
2022/07/10 03:34:06;;;;;;;7.30;1.43;;;;;;;;;;5077567;28;20732;-66
2022/07/10 03:36:31;;;;;;;8.17;1.20;;;;;;;;;;5073147;28;20461;-67
2022/07/10 03:38:56;;;;;;;10.83;1.30;;;;;;;;;;5091153;28;20384;-67
2022/07/10 03:41:21;;;;;;;5.67;1.03;;;;;;;;;;5083276;28;20464;-67
2022/07/10 03:43:47;;;;;;;8.60;1.20;;;;;;;;;;5078769;28;20458;-67
2022/07/10 03:46:12;;;;;;;9.17;1.50;;;;;;;;;;5075407;28;20814;-67
2022/07/10 03:48:37;;;;;;;8.30;1.67;;;;;;;;;;5083920;28;20024;-67
2022/07/10 03:51:02;;;;;;;6.07;1.20;;;;;;;;;;5075166;28;20023;-67
2022/07/10 03:53:27;;;;;;;6.37;1.40;;;;;;;;;;5080428;28;20029;-66
2022/07/10 03:55:54;;;;;;;8.57;1.33;;;;;;;;;;5075495;28;20099;-66
2022/07/10 03:58:19;;;;;;;8.23;1.30;;;;;;;;;;5092099;28;20024;-67
2022/07/10 04:00:44;;;;;;;6.73;1.10;;;;;;;;;;5088006;28;20031;-67
2022/07/10 04:03:09;;;;;;;9.47;1.23;;;;;;;;;;5076741;28;20099;-66
2022/07/10 04:05:35;;;;;;;6.83;1.33;;;;;;;;;;5073190;28;20082;-67
2022/07/10 04:08:00;;;;;;;9.47;1.33;;;;;;;;;;5076486;28;20127;-67
2022/07/10 04:10:26;;;;;;;10.00;1.33;;;;;;;;;;5073588;28;20035;-67
2022/07/10 04:12:52;;;;;;;6.13;1.00;;;;;;;;;;5073047;28;20028;-67
2022/07/10 04:15:17;;;;;;;9.47;1.13;;;;;;;;;;5088590;28;20047;-67
2022/07/10 04:17:42;;;;;;;12.27;1.17;;;;;;;;;;5074781;28;20701;-67
2022/07/10 04:20:08;;;;;;;5.93;1.00;;;;;;;;;;5090408;28;20024;-67
2022/07/10 04:22:33;;;;;;;10.43;1.25;;;;;;;;;;5073320;28;20116;-67
2022/07/10 04:24:59;;;;;;;3.95;0.80;;;;;;;;;;5089822;28;20024;-67
2022/07/10 04:27:24;;;;;;;10.85;1.15;;;;;;;;;;5077346;28;20568;-67
2022/07/10 04:29:49;;;;;;;6.85;1.23;;;;;;;;;;5092257;28;20503;-67
2022/07/10 04:32:15;;;;;;;5.63;1.05;;;;;;;;;;5077546;28;20028;-67
2022/07/10 04:34:40;;;;;;;9.23;1.10;;;;;;;;;;5086061;28;20380;-67
2022/07/10 04:37:07;;;;;;;8.23;1.50;;;;;;;;;;5080477;28;20020;-67
2022/07/10 04:39:32;;;;;;;7.70;1.33;;;;;;;;;;5091921;28;20110;-67
2022/07/10 04:41:57;;;;;;;6.07;1.27;;;;;;;;;;5080661;28;20024;-67
2022/07/10 04:44:23;;;;;;;3.83;0.77;;;;;;;;;;5072995;28;20032;-67
2022/07/10 04:46:48;;;;;;;4.80;1.00;;;;;;;;;;5078020;28;20074;-67
2022/07/10 04:49:13;;;;;;;7.18;1.17;;;;;;;;;;5088401;28;20033;-68
2022/07/10 04:51:38;;;;;;;6.65;1.38;;;;;;;;;;5072784;28;20029;-68
2022/07/10 04:54:04;;;;;;;6.45;1.00;;;;;;;;;;5084529;28;20027;-67
2022/07/10 04:56:29;;;;;;;6.28;1.10;;;;;;;;;;5074852;28;20052;-67
2022/07/10 04:58:54;;;;;;;4.70;0.93;;;;;;;;;;5088296;28;20056;-68
2022/07/10 05:01:20;;;;;;;6.95;1.02;;;;;;;;;;5076493;28;20036;-68
2022/07/10 05:03:45;;;;;;;7.03;1.15;;;;;;;;;;5077063;28;20039;-68
2022/07/10 05:06:10;;;;;;;6.05;1.10;;;;;;;;;;5074922;28;20028;-67
2022/07/10 05:08:36;;;;;;;6.35;1.05;;;;;;;;;;5079564;28;20028;-67
2022/07/10 05:11:01;;;;;;;7.57;1.00;;;;;;;;;;5072220;28;20036;-68
2022/07/10 05:13:26;;;;;;;8.05;1.42;;;;;;;;;;5075544;28;20024;-67
2022/07/10 05:15:51;;;;;;;7.22;1.15;;;;;;;;;;5071392;28;20027;-67
2022/07/10 05:18:16;;;;;;;7.03;1.20;;;;;;;;;;5077435;28;20024;-67
2022/07/10 05:20:43;;;;;;;7.38;1.35;;;;;;;;;;5072646;28;20095;-67
2022/07/10 05:23:09;;;;;;;3.08;1.02;;;;;;;;;;5075953;28;20093;-67
2022/07/10 05:25:34;;;;;;;11.10;1.33;;;;;;;;;;5085131;28;20023;-67
2022/07/10 05:27:59;;;;;;;7.93;1.23;;;;;;;;;;5089167;28;20507;-67
2022/07/10 05:30:24;;;;;;;8.32;1.45;;;;;;;;;;5082747;28;20554;-66
2022/07/10 05:32:49;;;;;;;8.57;1.52;;;;;;;;;;5081904;28;20028;-67
2022/07/10 05:35:15;;;;;;;8.57;1.38;;;;;;;;;;5089946;28;20027;-67
2022/07/10 05:37:40;;;;;;;9.88;1.40;;;;;;;;;;5077697;28;20047;-66
2022/07/10 05:40:06;;;;;;;5.15;1.13;;;;;;;;;;5083959;28;20024;-67
2022/07/10 05:42:32;;;;;;;9.98;2.20;;;;;;;;;;5075493;28;20107;-67
2022/07/10 05:44:57;;;;;;;9.57;1.80;;;;;;;;;;5090132;28;20627;-66
2022/07/10 05:47:22;;;;;;;9.70;1.55;;;;;;;;;;5079354;28;20027;-67
2022/07/10 05:49:47;;;;;;;9.80;1.50;;;;;;;;;;5086128;28;20109;-67
2022/07/10 05:52:13;;;;;;;8.55;1.23;;;;;;;;;;5075279;28;20060;-67
2022/07/10 05:54:38;;;;;;;12.00;1.80;;;;;;;;;;5077564;28;20029;-67
2022/07/10 05:57:04;;;;;;;7.68;1.40;;;;;;;;;;5073402;28;20024;-67
2022/07/10 05:59:32;;;;;;;8.17;2.10;;;;;;;;;;5087357;28;20026;-67
2022/07/10 06:01:57;;;;;;;8.35;1.80;;;;;;;;;;5076058;28;20065;-67
2022/07/10 06:04:23;;;;;;;8.23;1.40;;;;;;;;;;5071428;28;20044;-67
2022/07/10 06:06:48;;;;;;;9.63;1.60;;;;;;;;;;5074044;28;20040;-67
2022/07/10 06:09:13;;;;;;;7.80;1.60;;;;;;;;;;5074025;28;20082;-67
2022/07/10 06:11:41;;;;;;;9.77;1.70;;;;;;;;;;5074814;28;20093;-67
2022/07/10 06:14:06;;;;;;;8.37;1.77;;;;;;;;;;5071093;28;20487;-67
2022/07/10 06:16:32;;;;;;;7.00;1.70;;;;;;;;;;5074853;28;20024;-67
2022/07/10 06:18:57;;;;;;;6.72;1.63;;;;;;;;;;5074821;28;20062;-67
2022/07/10 06:21:22;;;;;;;10.60;1.57;;;;;;;;;;5071173;28;20028;-67
2022/07/10 06:23:48;;;;;;;10.43;2.27;;;;;;;;;;5076799;28;20143;-67
2022/07/10 06:26:13;;;;;;;10.13;2.00;;;;;;;;;;5071105;28;20025;-67
2022/07/10 06:28:39;;;;;;;7.53;2.15;;;;;;;;;;5079011;28;20032;-67
2022/07/10 06:31:04;;;;;;;10.17;1.73;;;;;;;;;;5072047;28;20039;-67
2022/07/10 06:33:29;;;;;;;10.93;1.98;;;;;;;;;;5079283;28;20029;-67
2022/07/10 06:35:55;;;;;;;8.83;1.60;;;;;;;;;;5073953;28;20380;-67
2022/07/10 06:38:20;;;;;;;10.02;2.20;;;;;;;;;;5076933;28;20426;-67
2022/07/10 06:40:47;;;;;;;13.05;2.00;;;;;;;;;;5072195;28;20626;-67
2022/07/10 06:43:12;;;;;;;6.93;1.50;;;;;;;;;;5081712;28;20111;-67
2022/07/10 06:45:38;;;;;;;9.30;1.45;;;;;;;;;;5081898;28;20198;-67
2022/07/10 06:48:04;;;;;;;8.80;2.00;;;;;;;;;;5081828;28;20032;-67
2022/07/10 06:50:34;;;;;;;9.93;2.08;;;;;;;;;;5083287;28;20108;-67
2022/07/10 06:52:59;;;;;;;8.32;1.50;;;;;;;;;;5084978;28;20031;-67
2022/07/10 06:55:25;;;;;;;8.30;1.48;;;;;;;;;;5070571;28;20485;-67
2022/07/10 06:57:50;;;;;;;7.75;1.80;;;;;;;;;;5080555;28;20020;-67
2022/07/10 07:00:16;;;;;;;10.65;1.40;;;;;;;;;;5091065;28;20031;-67
2022/07/10 07:02:41;;;;;;;8.85;1.50;;;;;;;;;;5091487;28;20031;-67
2022/07/10 07:05:07;;;;;;;9.55;2.25;;;;;;;;;;5080073;28;20021;-67
2022/07/10 07:07:33;;;;;;;11.57;1.50;;;;;;;;;;5086897;28;20051;-67
2022/07/10 07:09:58;;;;;;;8.38;1.90;;;;;;;;;;5075322;28;20020;-67
2022/07/10 07:12:23;;;;;;;6.25;1.38;;;;;;;;;;5079247;28;20028;-67
2022/07/10 07:14:48;;;;;;;10.80;1.35;;;;;;;;;;5093151;28;20035;-67
2022/07/10 07:17:21;;;;;;;9.35;1.55;;;;;;;;;;5090526;28;20034;-67
2022/07/10 07:25:14;;;;;;;7.20;1.20;;;;;;;;;;5094233;28;20073;-67
2022/07/10 07:27:39;;;;;;;6.40;1.40;;;;;;;;;;5079466;28;20024;-67
2022/07/10 07:30:06;;;;;;;8.30;1.10;;;;;;;;;;5076346;28;20090;-67
2022/07/10 07:32:31;;;;;;;10.05;1.40;;;;;;;;;;5079189;28;20039;-67
2022/07/10 07:34:56;;;;;;;9.50;1.40;;;;;;;;;;5074869;28;20461;-67
2022/07/10 07:37:23;;;;;;;7.20;1.30;;;;;;;;;;5090847;28;20028;-68
2022/07/10 07:39:48;;;;;;;7.07;1.42;;;;;;;;;;5081173;28;20463;-67
2022/07/10 07:42:14;;;;;;;9.82;1.30;;;;;;;;;;5086481;28;20129;-67
2022/07/10 07:44:39;;;;;;;9.05;1.70;;;;;;;;;;5094824;28;20028;-67
2022/07/10 07:47:04;;;;;;;9.25;1.27;;;;;;;;;;5089298;28;20024;-67
2022/07/10 07:49:29;;;;;;;7.18;1.35;;;;;;;;;;5078167;28;20472;-67
2022/07/10 07:51:55;;;;;;;7.32;1.20;;;;;;;;;;5085211;28;20509;-67
2022/07/10 07:54:20;;;;;;;8.15;1.10;;;;;;;;;;5089933;28;20473;-67
2022/07/10 07:56:45;;;;;;;9.65;1.40;;;;;;;;;;5072857;28;20035;-67
2022/07/10 07:59:12;;;;;;;9.50;1.55;;;;;;;;;;5080567;28;20059;-67
2022/07/10 08:01:37;;;;;;;8.55;1.42;;;;;;;;;;5079191;28;20028;-67
2022/07/10 08:04:03;;;;;;;8.32;1.35;;;;;;;;;;5076693;28;20033;-67
2022/07/10 08:06:28;;;;;;;7.13;1.48;;;;;;;;;;5076183;28;20032;-67
2022/07/10 08:08:53;;;;;;;8.40;1.58;;;;;;;;;;5090467;28;20036;-67
2022/07/10 08:11:19;;;;;;;7.32;1.58;;;;;;;;;;5073109;28;20052;-67
2022/07/10 08:13:44;;;;;;;7.18;1.20;;;;;;;;;;5088366;28;20052;-67
2022/07/10 08:16:10;;;;;;;5.22;1.40;;;;;;;;;;5078288;28;20031;-67
2022/07/10 08:18:35;;;;;;;12.82;2.13;;;;;;;;;;5076166;28;20024;-67
2022/07/10 08:21:00;;;;;;;11.50;1.40;;;;;;;;;;5075269;28;20048;-67
2022/07/10 08:23:26;;;;;;;7.00;1.20;;;;;;;;;;5082141;28;20065;-67
2022/07/10 08:25:51;;;;;;;7.38;1.35;;;;;;;;;;5079057;28;20070;-67
2022/07/10 08:28:17;;;;;;;6.47;1.30;;;;;;;;;;5085837;28;20920;-67
2022/07/10 08:30:43;;;;;;;5.35;1.60;;;;;;;;;;5074876;28;20465;-67
2022/07/10 08:33:08;;;;;;;6.05;1.10;;;;;;;;;;5081136;28;20627;-67
2022/07/10 08:35:33;;;;;;;15.20;1.50;;;;;;;;;;5083640;28;20132;-67
2022/07/10 08:37:59;;;;;;;6.47;1.42;;;;;;;;;;5086234;28;20441;-68
2022/07/10 08:40:24;;;;;;;7.25;1.30;;;;;;;;;;5083755;28;20009;-67
2022/07/10 08:42:49;;;;;;;5.18;1.10;;;;;;;;;;5084498;28;20030;-68
2022/07/10 08:45:15;;;;;;;9.27;1.25;;;;;;;;;;5089554;28;20103;-68
2022/07/10 08:47:46;;;;;;;9.20;1.40;;;;;;;;;;5087041;28;20108;-67
2022/07/10 08:50:21;;;;;;;6.47;1.42;;;;;;;;;;5087477;28;20024;-68
2022/07/10 08:53:13;;;;;;;5.32;1.33;;;;;;;;;;5081404;28;20039;-68
2022/07/10 08:55:38;;;;;;;9.50;1.48;;;;;;;;;;5078635;28;20032;-67
2022/07/10 08:58:07;;;;;;;7.60;1.45;;;;;;;;;;5072771;28;20066;-67
2022/07/10 09:00:32;;;;;;;5.07;1.30;;;;;;;;;;5078764;28;20046;-67
2022/07/10 09:02:57;;;;;;;4.55;0.98;;;;;;;;;;5072783;28;20016;-67
2022/07/10 09:05:23;;;;;;;7.07;1.45;;;;;;;;;;5067277;28;20034;-67
2022/07/10 09:07:49;;;;;;;7.07;1.15;;;;;;;;;;5092223;28;20031;-67
2022/07/10 09:10:14;;;;;;;12.23;1.45;;;;;;;;;;5076307;28;20024;-67
2022/07/10 09:12:50;;;;;;;7.35;1.38;;;;;;;;;;5086111;28;20062;-67
2022/07/10 09:15:17;;;;;;;10.10;1.30;;;;;;;;;;5080896;28;20042;-67
2022/07/10 09:18:09;;;;;;;7.60;1.30;;;;;;;;;;5075792;28;20023;-67
2022/07/10 09:20:38;;;;;;;12.13;1.85;;;;;;;;;;5082595;28;20085;-67
2022/07/10 09:23:17;;;;;;;8.73;2.55;;;;;;;;;;5079379;28;20477;-67
2022/07/10 09:25:43;;;;;;;9.63;2.03;;;;;;;;;;5072720;28;20035;-67
2022/07/10 09:28:08;;;;;;;6.82;1.52;;;;;;;;;;5086453;28;20035;-67
2022/07/10 09:30:37;;;;;;;8.85;1.52;;;;;;;;;;5072564;28;20082;-67
2022/07/10 09:33:30;;;;;;;10.57;1.30;;;;;;;;;;5083395;28;20051;-67
2022/07/10 09:36:05;;;;;;;7.85;1.42;;;;;;;;;;5076668;28;20506;-67
2022/07/10 09:38:39;;;;;;;9.38;1.70;;;;;;;;;;5078290;28;20028;-67
2022/07/10 09:41:16;;;;;;;6.03;1.38;;;;;;;;;;5083537;28;20032;-67
2022/07/10 09:43:51;;;;;;;6.40;1.70;;;;;;;;;;5086588;28;20039;-66
2022/07/10 09:46:18;;;;;;;12.48;2.25;;;;;;;;;;5079710;28;20052;-67
2022/07/10 09:48:44;;;;;;;7.10;1.30;;;;;;;;;;5081534;28;20055;-67
2022/07/10 09:51:10;;;;;;;7.05;1.75;;;;;;;;;;5078315;28;20059;-67
2022/07/10 09:53:40;;;;;;;7.32;1.45;;;;;;;;;;5086458;28;20021;-67
2022/07/10 09:56:06;;;;;;;7.75;1.10;;;;;;;;;;5077677;28;20376;-67
2022/07/10 09:58:32;;;;;;;6.82;1.40;;;;;;;;;;5077875;28;20028;-67
2022/07/10 10:00:58;;;;;;;7.95;1.40;;;;;;;;;;5079024;28;20024;-67
2022/07/10 10:03:24;;;;;;;5.78;1.33;;;;;;;;;;5071663;28;20481;-67
2022/07/10 10:05:49;;;;;;;7.80;1.20;;;;;;;;;;5077322;28;20035;-67
2022/07/10 10:08:24;;;;;;;3.95;1.17;;;;;;;;;;5077425;28;20504;-67
2022/07/10 10:10:50;;;;;;;5.55;1.33;;;;;;;;;;5072230;28;20053;-67
2022/07/10 10:13:17;;;;;;;4.63;1.15;;;;;;;;;;5072312;28;20467;-67
2022/07/10 10:15:42;;;;;;;7.88;1.05;;;;;;;;;;5068919;28;20098;-67
2022/07/10 10:18:08;;;;;;;5.15;1.00;;;;;;;;;;5070657;28;20104;-67
2022/07/10 10:20:37;;;;;;;5.68;1.10;;;;;;;;;;5071237;28;20059;-68
2022/07/10 10:23:03;;;;;;;5.53;1.17;;;;;;;;;;5072666;28;20389;-67
2022/07/10 10:25:31;;;;;;;5.57;1.00;;;;;;;;;;5068020;28;20491;-67
2022/07/10 10:27:57;;;;;;;5.72;1.15;;;;;;;;;;5082835;28;20643;-67
2022/07/10 10:30:22;;;;;;;5.65;1.40;;;;;;;;;;5080746;28;20029;-67
2022/07/10 10:32:47;;;;;;;6.80;1.27;;;;;;;;;;5069231;28;20043;-67
2022/07/10 10:35:33;;;;;;;4.40;0.90;;;;;;;;;;5072544;28;20028;-67
2022/07/10 10:37:58;;;;;;;5.45;1.10;;;;;;;;;;5083169;28;20031;-67
2022/07/10 10:40:31;;;;;;;6.32;1.35;;;;;;;;;;5083898;28;20719;-67
2022/07/10 10:42:58;;;;;;;6.43;1.30;;;;;;;;;;5077604;28;20024;-67
2022/07/10 10:45:29;;;;;;;5.30;1.63;;;;;;;;;;5072314;28;20028;-67
2022/07/10 10:47:59;;;;;;;5.72;1.10;;;;;;;;;;5074817;28;20020;-67
2022/07/10 10:50:40;;;;;;;5.50;1.10;;;;;;;;;;5081196;28;20044;-67
2022/07/10 10:53:22;;;;;;;9.15;1.20;;;;;;;;;;5069763;28;20472;-68
2022/07/10 10:56:00;;;;;;;6.07;0.90;;;;;;;;;;5072647;28;20055;-67
2022/07/10 10:58:25;;;;;;;4.70;0.82;;;;;;;;;;5084559;28;20514;-67
2022/07/10 11:00:50;;;;;;;5.45;0.93;;;;;;;;;;5076819;28;20113;-67
2022/07/10 11:03:17;;;;;;;5.20;1.10;;;;;;;;;;5086212;28;20361;-68
2022/07/10 11:05:43;;;;;;;7.72;1.00;;;;;;;;;;5070922;28;20090;-67
2022/07/10 11:08:08;;;;;;;5.55;1.10;;;;;;;;;;5077288;28;20549;-67
2022/07/10 11:10:43;;;;;;;6.55;1.10;;;;;;;;;;5067707;28;20036;-67
2022/07/10 11:13:13;;;;;;;4.85;1.10;;;;;;;;;;5075263;28;20150;-67
2022/07/10 11:15:42;;;;;;;4.25;0.90;;;;;;;;;;5071123;28;20016;-67
2022/07/10 11:18:13;;;;;;;5.95;1.13;;;;;;;;;;5080422;28;20056;-67
2022/07/10 11:20:39;;;;;;;7.45;1.60;;;;;;;;;;5067510;28;20032;-67
2022/07/10 11:23:23;;;;;;;6.28;1.10;;;;;;;;;;5071663;28;20154;-66
2022/07/10 11:26:00;;;;;;;5.03;1.15;;;;;;;;;;5076357;28;20043;-67
2022/07/10 11:28:28;;;;;;;6.07;1.00;;;;;;;;;;5078330;28;20034;-67
2022/07/10 11:30:54;;;;;;;7.38;1.13;;;;;;;;;;5071666;28;20024;-67
2022/07/10 11:33:23;;;;;;;8.05;1.10;;;;;;;;;;5077757;28;20012;-67
2022/07/10 11:35:50;;;;;;;5.85;1.02;;;;;;;;;;5082870;28;20495;-67
2022/07/10 11:38:18;;;;;;;6.35;1.23;;;;;;;;;;5073495;28;20379;-67
2022/07/10 11:40:44;;;;;;;6.47;1.50;;;;;;;;;;5069314;28;20064;-67
2022/07/10 11:43:13;;;;;;;8.52;1.10;;;;;;;;;;5078288;28;20515;-68
2022/07/10 11:45:39;;;;;;;9.23;1.48;;;;;;;;;;5076947;28;20025;-67
2022/07/10 11:48:05;;;;;;;4.72;1.30;;;;;;;;;;5070213;28;20032;-67
2022/07/10 11:50:37;;;;;;;4.88;0.95;;;;;;;;;;5071406;28;20438;-67
2022/07/10 11:53:03;;;;;;;5.40;0.90;;;;;;;;;;5078390;28;20043;-67
2022/07/10 11:55:29;;;;;;;6.13;0.93;;;;;;;;;;5074647;28;20103;-67
2022/07/10 11:57:54;;;;;;;6.53;0.95;;;;;;;;;;5079329;28;20056;-67
2022/07/10 12:00:29;;;;;;;4.20;0.90;;;;;;;;;;5081258;28;20519;-67
2022/07/10 12:02:55;;;;;;;6.35;1.20;;;;;;;;;;5078288;28;20029;-67
2022/07/10 12:05:30;;;;;;;5.55;0.93;;;;;;;;;;5079949;28;20035;-67
2022/07/10 12:07:55;;;;;;;5.57;1.00;;;;;;;;;;5076347;28;20077;-67
2022/07/10 12:10:25;;;;;;;6.40;1.02;;;;;;;;;;5073674;28;20020;-67
2022/07/10 12:12:50;;;;;;;5.75;1.10;;;;;;;;;;5074296;28;20051;-67
2022/07/10 12:15:34;;;;;;;3.92;1.00;;;;;;;;;;5070014;28;20020;-67
2022/07/10 12:18:00;;;;;;;5.95;1.10;;;;;;;;;;5080588;28;20034;-67
2022/07/10 12:20:25;;;;;;;4.60;1.02;;;;;;;;;;5070103;28;20556;-67
2022/07/10 12:22:53;;;;;;;6.30;1.10;;;;;;;;;;5078493;28;20104;-67
2022/07/10 12:25:18;;;;;;;3.60;0.75;;;;;;;;;;5077681;28;20495;-67
2022/07/10 12:27:44;;;;;;;6.85;1.13;;;;;;;;;;5077964;28;20032;-66
2022/07/10 12:30:09;;;;;;;8.52;1.00;;;;;;;;;;5080241;28;20024;-67
2022/07/10 12:32:35;;;;;;;6.43;1.23;;;;;;;;;;5075169;28;20034;-67
2022/07/10 12:35:00;;;;;;;5.13;0.93;;;;;;;;;;5077751;28;20020;-67
2022/07/10 12:37:25;;;;;;;4.78;1.27;;;;;;;;;;5071429;28;20020;-67
2022/07/10 12:39:53;;;;;;;5.55;0.80;;;;;;;;;;5088733;28;20020;-67
2022/07/10 12:42:25;;;;;;;4.38;0.90;;;;;;;;;;5083807;28;20430;-68
2022/07/10 12:44:50;;;;;;;6.22;0.90;;;;;;;;;;5076271;28;20029;-67
2022/07/10 12:47:16;;;;;;;3.55;0.90;;;;;;;;;;5075541;28;20046;-68
2022/07/10 12:50:00;;;;;;;5.50;1.00;;;;;;;;;;5080361;28;20392;-68
2022/07/10 12:52:27;;;;;;;8.45;0.75;;;;;;;;;;5085423;28;20075;-67
2022/07/10 12:55:15;;;;;;;6.82;0.95;;;;;;;;;;5080697;28;20031;-67
2022/07/10 12:57:47;;;;;;;3.92;1.02;;;;;;;;;;5070813;28;20837;-67
2022/07/10 13:00:13;;;;;;;4.47;0.82;;;;;;;;;;5071329;28;20097;-67
2022/07/10 13:02:38;;;;;;;4.68;0.70;;;;;;;;;;5076576;28;20028;-68
2022/07/10 13:05:04;;;;;;;7.45;1.35;;;;;;;;;;5079595;28;20486;-67
2022/07/10 13:07:33;;;;;;;5.70;0.90;;;;;;;;;;5077852;28;20115;-67
2022/07/10 13:10:03;;;;;;;5.65;0.80;;;;;;;;;;5068921;28;20992;-68
2022/07/10 13:12:28;;;;;;;4.30;0.80;;;;;;;;;;5082011;28;20027;-67
2022/07/10 13:14:54;;;;;;;5.43;1.10;;;;;;;;;;5071443;28;20036;-68
2022/07/10 13:17:19;;;;;;;4.95;1.20;;;;;;;;;;5074367;28;20703;-68
2022/07/10 13:19:44;;;;;;;5.78;1.00;;;;;;;;;;5086488;28;20123;-68
2022/07/10 13:22:09;;;;;;;3.53;1.15;;;;;;;;;;5072096;28;20998;-68
2022/07/10 13:24:35;;;;;;;6.20;0.75;;;;;;;;;;5073060;28;20545;-67
2022/07/10 13:27:00;;;;;;;5.45;0.88;;;;;;;;;;5088236;28;20456;-67
2022/07/10 13:29:25;;;;;;;5.88;0.80;;;;;;;;;;5074871;28;20089;-68
2022/07/10 13:31:51;;;;;;;3.92;0.75;;;;;;;;;;5068432;28;20053;-68
2022/07/10 13:34:16;;;;;;;3.60;0.90;;;;;;;;;;5084444;28;20033;-68
2022/07/10 13:36:42;;;;;;;4.25;1.00;;;;;;;;;;5070453;28;20028;-68
2022/07/10 13:39:08;;;;;;;6.13;0.90;;;;;;;;;;5071055;28;20111;-67
2022/07/10 13:41:33;;;;;;;3.90;0.70;;;;;;;;;;5072731;28;20460;-68
2022/07/10 13:43:58;;;;;;;3.63;0.70;;;;;;;;;;5074697;28;20691;-68
2022/07/10 13:46:24;;;;;;;4.43;0.90;;;;;;;;;;5067942;28;20385;-67
2022/07/10 13:48:49;;;;;;;3.63;0.80;;;;;;;;;;5073206;28;20035;-67
2022/07/10 13:51:14;;;;;;;3.92;0.90;;;;;;;;;;5071829;28;20045;-68
2022/07/10 13:53:40;;;;;;;3.35;0.73;;;;;;;;;;5070314;28;20060;-68
2022/07/10 13:56:06;;;;;;;3.92;0.85;;;;;;;;;;5073655;28;20035;-68
2022/07/10 13:58:31;;;;;;;3.97;0.60;;;;;;;;;;5074246;28;20452;-68
2022/07/10 14:00:59;;;;;;;2.78;0.70;;;;;;;;;;5082026;28;20059;-67
2022/07/10 14:03:24;;;;;;;6.13;1.00;;;;;;;;;;5070678;28;20032;-67
2022/07/10 14:05:49;;;;;;;2.75;0.57;;;;;;;;;;5081557;28;20028;-67
2022/07/10 14:08:15;;;;;;;2.70;0.50;;;;;;;;;;5074185;28;20074;-68
2022/07/10 14:10:40;;;;;;;2.22;0.45;;;;;;;;;;5067958;28;20047;-67
2022/07/10 14:13:08;;;;;;;3.55;0.70;;;;;;;;;;5070064;28;20054;-67
2022/07/10 14:15:33;;;;;;;3.55;0.95;;;;;;;;;;5068197;28;20030;-67
2022/07/10 14:17:59;;;;;;;4.82;0.63;;;;;;;;;;5080792;28;20035;-68
2022/07/10 14:20:24;;;;;;;3.70;0.70;;;;;;;;;;5068315;28;20499;-68
2022/07/10 14:22:50;;;;;;;5.07;0.77;;;;;;;;;;5071619;28;20025;-67
2022/07/10 14:25:15;;;;;;;2.08;0.50;;;;;;;;;;5073852;28;20095;-68
2022/07/10 14:27:41;;;;;;;5.20;0.70;;;;;;;;;;5075619;28;20746;-68
2022/07/10 14:30:07;;;;;;;3.15;0.47;;;;;;;;;;5071630;28;20035;-68
2022/07/10 14:32:32;;;;;;;5.40;0.70;;;;;;;;;;5072897;28;20028;-68
2022/07/10 14:34:57;;;;;;;3.33;0.65;;;;;;;;;;5076979;28;20028;-68
2022/07/10 14:37:22;;;;;;;3.85;0.55;;;;;;;;;;5079081;28;20031;-68
2022/07/10 14:39:48;;;;;;;5.63;0.80;;;;;;;;;;5077847;28;20020;-68
2022/07/10 14:42:14;;;;;;;3.50;0.60;;;;;;;;;;5071274;28;20107;-68
2022/07/10 14:44:39;;;;;;;4.32;0.60;;;;;;;;;;5074666;28;20115;-68